Time;durP1;ratioP1;P1;durP2;ratioP2;P2;SDS_P1;SDS_P2;PMS_P1;PMS_P2;Temp;Humidity;BMP_temperature;BMP_pressure;BME280_temperature;BME280_humidity;BME280_pressure;Samples;Min_cycle;Max_cycle;Signal;HPM_P1;HPM_P2
2021/06/24 00:02:23;;;;;;;17.20;8.00;;;;;;;26.64;100.00;101188.75;4835468;29;20521;-76
2021/06/24 00:05:09;;;;;;;13.55;8.25;;;;;;;26.62;100.00;101191.56;4847782;29;20030;-76
2021/06/24 00:07:55;;;;;;;12.70;7.88;;;;;;;26.77;100.00;101178.78;4848987;29;20030;-76
2021/06/24 00:10:42;;;;;;;20.23;8.27;;;;;;;26.77;100.00;101176.09;4835425;29;20057;-76
2021/06/24 00:13:28;;;;;;;14.73;7.28;;;;;;;26.06;100.00;101167.22;4848703;29;20105;-75
2021/06/24 00:16:14;;;;;;;17.73;7.88;;;;;;;26.12;100.00;101159.53;4846987;29;20463;-76
2021/06/24 00:19:00;;;;;;;16.35;7.47;;;;;;;26.31;100.00;101167.94;4834319;29;20088;-76
2021/06/24 00:21:46;;;;;;;18.45;8.57;;;;;;;26.56;100.00;101172.31;4847127;29;20038;-76
2021/06/24 00:24:32;;;;;;;17.52;8.13;;;;;;;26.48;100.00;101177.44;4835176;29;20033;-76
2021/06/24 00:27:18;;;;;;;18.55;7.90;;;;;;;26.37;100.00;101172.84;4846562;29;20117;-76
2021/06/24 00:30:05;;;;;;;11.65;7.90;;;;;;;26.53;100.00;101156.44;4847334;29;20106;-76
2021/06/24 00:32:51;;;;;;;17.42;7.88;;;;;;;26.72;100.00;101154.06;4835956;29;20041;-76
2021/06/24 00:35:37;;;;;;;17.55;8.60;;;;;;;26.36;100.00;101155.00;4834824;29;20034;-76
2021/06/24 00:38:23;;;;;;;20.08;8.57;;;;;;;26.27;100.00;101139.59;4847884;29;20037;-76
2021/06/24 00:41:09;;;;;;;17.10;8.55;;;;;;;26.39;100.00;101135.09;4847859;29;20034;-76
2021/06/24 00:43:55;;;;;;;18.23;8.90;;;;;;;26.30;100.00;101135.81;4847530;29;20055;-76
2021/06/24 00:46:41;;;;;;;19.10;9.20;;;;;;;26.31;100.00;101130.31;4847925;29;20038;-76
2021/06/24 00:49:27;;;;;;;17.58;8.52;;;;;;;26.58;100.00;101124.69;4847829;29;20038;-76
2021/06/24 00:52:13;;;;;;;17.35;8.35;;;;;;;26.66;100.00;101128.53;4846715;29;20037;-75
2021/06/24 00:54:59;;;;;;;15.73;8.05;;;;;;;26.54;100.00;101133.94;4847437;29;20046;-75
2021/06/24 00:57:45;;;;;;;15.98;9.13;;;;;;;26.37;100.00;101142.44;4845438;29;20099;-76
2021/06/24 01:00:31;;;;;;;18.08;8.63;;;;;;;26.58;100.00;101155.13;4847573;29;20057;-76
2021/06/24 01:03:17;;;;;;;15.30;8.52;;;;;;;26.14;100.00;101157.63;4847435;29;20379;-76
2021/06/24 01:06:03;;;;;;;15.38;8.40;;;;;;;26.34;100.00;101154.28;4845350;29;20034;-76
2021/06/24 01:08:49;;;;;;;13.90;8.40;;;;;;;26.24;100.00;101138.97;4847844;29;20037;-76
2021/06/24 01:11:35;;;;;;;19.42;9.43;;;;;;;26.03;100.00;101151.31;4846719;29;20563;-76
2021/06/24 01:14:24;;;;;;;19.35;9.43;;;;;;;25.98;100.00;101156.16;4845791;29;20113;-76
2021/06/24 01:17:10;;;;;;;19.33;8.88;;;;;;;26.22;100.00;101154.34;4845738;29;20037;-76
2021/06/24 01:19:56;;;;;;;15.55;9.43;;;;;;;26.27;100.00;101157.53;4846754;29;20029;-76
2021/06/24 01:22:41;;;;;;;17.98;9.45;;;;;;;26.26;100.00;101150.44;4845183;29;20101;-76
2021/06/24 01:25:28;;;;;;;16.83;9.65;;;;;;;26.34;100.00;101137.28;4846357;29;20033;-75
2021/06/24 01:28:13;;;;;;;16.88;9.38;;;;;;;25.59;100.00;101143.81;4846336;29;20459;-75
2021/06/24 01:31:00;;;;;;;18.90;10.00;;;;;;;25.54;100.00;101129.88;4844354;29;20034;-76
2021/06/24 01:33:46;;;;;;;18.80;10.07;;;;;;;25.70;100.00;101124.25;4844157;29;20045;-75
2021/06/24 01:36:32;;;;;;;19.65;9.65;;;;;;;25.76;100.00;101118.44;4844930;29;20033;-75
2021/06/24 01:39:18;;;;;;;17.77;10.10;;;;;;;25.59;100.00;101116.97;4846630;29;20041;-75
2021/06/24 01:42:04;;;;;;;17.90;10.52;;;;;;;25.83;100.00;101114.31;4830716;29;20133;-75
2021/06/24 01:44:50;;;;;;;18.40;9.68;;;;;;;25.83;100.00;101117.00;4845728;29;20030;-76
2021/06/24 01:47:36;;;;;;;18.25;9.82;;;;;;;25.96;100.00;101117.84;4833566;29;20033;-76
2021/06/24 01:50:22;;;;;;;17.58;9.32;;;;;;;25.50;100.00;101124.84;4846422;29;20455;-75
2021/06/24 01:53:07;;;;;;;17.40;9.30;;;;;;;25.60;100.00;101136.63;4846013;29;20128;-75
2021/06/24 01:55:55;;;;;;;14.50;8.93;;;;;;;25.54;100.00;101139.75;4846342;29;20026;-76
2021/06/24 01:58:41;;;;;;;19.77;9.63;;;;;;;25.73;100.00;101124.03;4846931;29;20034;-76
2021/06/24 02:01:26;;;;;;;18.63;8.70;;;;;;;25.24;100.00;101125.84;4845702;29;20033;-76
2021/06/24 02:04:13;;;;;;;15.80;9.32;;;;;;;25.14;100.00;101130.13;4832253;29;20045;-77
2021/06/24 02:06:59;;;;;;;15.65;9.43;;;;;;;25.20;100.00;101135.91;4833841;29;20175;-76
2021/06/24 02:09:44;;;;;;;18.92;9.50;;;;;;;25.33;100.00;101144.84;4843822;29;20372;-76
2021/06/24 02:12:30;;;;;;;16.02;9.40;;;;;;;25.41;100.00;101145.16;4845536;29;20065;-76
2021/06/24 02:15:17;;;;;;;18.33;9.13;;;;;;;25.36;100.00;101155.34;4833473;29;20112;-76
2021/06/24 02:18:03;;;;;;;16.73;9.32;;;;;;;25.50;100.00;101157.91;4844406;29;20118;-77
2021/06/24 02:20:49;;;;;;;16.77;9.68;;;;;;;25.63;100.00;101158.72;4833667;29;20030;-76
2021/06/24 02:23:35;;;;;;;19.15;9.48;;;;;;;25.27;100.00;101168.53;4844073;29;20030;-76
2021/06/24 02:26:20;;;;;;;16.35;9.90;;;;;;;25.50;100.00;101171.31;4832861;29;20037;-76
2021/06/24 02:29:06;;;;;;;21.00;10.45;;;;;;;24.96;100.00;101164.47;4845087;29;20112;-76
2021/06/24 02:31:52;;;;;;;20.35;10.30;;;;;;;25.17;100.00;101160.28;4844342;29;20030;-76
2021/06/24 02:34:39;;;;;;;17.17;10.60;;;;;;;25.12;100.00;101157.06;4843649;29;20114;-76
2021/06/24 02:37:25;;;;;;;20.05;10.68;;;;;;;25.22;100.00;101154.56;4847324;29;20436;-77
2021/06/24 02:40:13;;;;;;;23.80;11.90;;;;;;;25.19;100.00;101161.03;4847555;29;20097;-76
2021/06/24 02:43:00;;;;;;;20.58;11.10;;;;;;;25.20;100.00;101172.63;4847529;29;20030;-76
2021/06/24 02:45:46;;;;;;;18.25;11.48;;;;;;;25.11;100.00;101162.56;4844513;29;20048;-77
2021/06/24 02:48:31;;;;;;;18.25;10.80;;;;;;;25.08;100.00;101174.31;4843983;29;20045;-76
2021/06/24 02:51:17;;;;;;;15.90;10.48;;;;;;;25.13;100.00;101158.78;4844744;29;20098;-76
2021/06/24 02:54:03;;;;;;;13.95;9.45;;;;;;;25.38;100.00;101160.59;4843853;29;20056;-76
2021/06/24 02:56:49;;;;;;;16.52;9.48;;;;;;;25.29;100.00;101156.78;4845307;29;20112;-77
2021/06/24 02:59:35;;;;;;;20.27;9.05;;;;;;;24.67;100.00;101160.25;4844135;29;20045;-76
2021/06/24 03:02:21;;;;;;;15.57;9.00;;;;;;;25.00;100.00;101170.47;4845422;29;20069;-76
2021/06/24 03:05:09;;;;;;;13.75;9.48;;;;;;;25.04;100.00;101169.31;4845210;29;20038;-76
2021/06/24 03:07:55;;;;;;;18.25;9.77;;;;;;;25.11;100.00;101174.13;4843026;29;20026;-76
2021/06/24 03:10:40;;;;;;;17.17;10.27;;;;;;;25.05;100.00;101171.00;4844293;29;20471;-76
2021/06/24 03:13:26;;;;;;;16.60;9.55;;;;;;;24.81;100.00;101164.66;4831287;29;20044;-76
2021/06/24 03:16:12;;;;;;;19.95;9.68;;;;;;;25.07;100.00;101161.06;4847923;29;20034;-76
2021/06/24 03:18:58;;;;;;;23.23;9.68;;;;;;;25.04;100.00;101158.56;4848506;29;20519;-76
2021/06/24 03:21:44;;;;;;;19.40;9.90;;;;;;;24.90;100.00;101158.66;4847718;29;20117;-75
2021/06/24 03:24:29;;;;;;;18.17;9.68;;;;;;;25.25;100.00;101171.34;4847798;29;20453;-75
2021/06/24 03:27:15;;;;;;;16.98;9.43;;;;;;;25.38;100.00;101174.88;4835319;29;20034;-75
2021/06/24 03:30:03;;;;;;;16.52;9.90;;;;;;;25.59;100.00;101175.19;4847055;29;20037;-76
2021/06/24 03:32:50;;;;;;;20.65;9.68;;;;;;;25.35;100.00;101166.22;4846981;29;20029;-76
2021/06/24 03:35:35;;;;;;;18.63;9.57;;;;;;;25.49;100.00;101176.81;4848105;29;20101;-76
2021/06/24 03:38:21;;;;;;;21.40;11.32;;;;;;;25.53;100.00;101175.59;4847567;29;20033;-76
2021/06/24 03:41:07;;;;;;;16.90;11.18;;;;;;;25.83;100.00;101168.88;4847276;29;20046;-76
2021/06/24 03:43:54;;;;;;;18.30;11.02;;;;;;;25.55;100.00;101181.75;4847689;29;20030;-76
2021/06/24 03:46:40;;;;;;;23.20;11.90;;;;;;;25.34;100.00;101188.63;4847257;29;20086;-76
2021/06/24 03:49:26;;;;;;;17.63;11.98;;;;;;;25.34;100.00;101186.81;4846827;29;20034;-76
2021/06/24 03:52:12;;;;;;;20.60;11.60;;;;;;;25.44;100.00;101192.38;4834156;29;20057;-77
2021/06/24 03:54:57;;;;;;;21.73;11.45;;;;;;;25.71;100.00;101195.75;4846143;29;20065;-75
2021/06/24 03:57:43;;;;;;;18.38;10.75;;;;;;;25.55;100.00;101206.72;4846762;29;20076;-75
2021/06/24 04:00:30;;;;;;;17.48;10.70;;;;;;;25.49;100.00;101211.69;4846557;29;20345;-75
2021/06/24 04:03:16;;;;;;;18.05;9.68;;;;;;;25.59;100.00;101202.03;4833854;29;20097;-76
2021/06/24 04:06:02;;;;;;;17.45;9.20;;;;;;;25.50;100.00;101214.25;4847539;29;20022;-76
2021/06/24 04:08:48;;;;;;;14.05;10.27;;;;;;;25.75;100.00;101219.59;4848089;29;20037;-76
2021/06/24 04:11:33;;;;;;;15.45;9.88;;;;;;;25.44;100.00;101222.72;4846493;29;20375;-76
2021/06/24 04:14:19;;;;;;;15.43;9.25;;;;;;;25.20;100.00;101223.59;4846849;29;20459;-75
2021/06/24 04:17:05;;;;;;;16.00;10.73;;;;;;;25.48;100.00;101221.56;4848234;29;20477;-76
2021/06/24 04:19:51;;;;;;;44.00;15.90;;;;;;;25.57;100.00;101220.91;4846891;29;20081;-75
2021/06/24 04:22:37;;;;;;;20.05;10.18;;;;;;;25.62;100.00;101220.56;4846004;29;20038;-77
2021/06/24 04:25:23;;;;;;;18.30;9.98;;;;;;;25.91;100.00;101216.63;4846444;29;20038;-76
2021/06/24 04:28:09;;;;;;;15.35;9.50;;;;;;;25.98;100.00;101207.19;4831920;29;20038;-76
2021/06/24 04:30:55;;;;;;;26.30;9.73;;;;;;;26.10;100.00;101206.28;4845021;29;20061;-75
2021/06/24 04:33:40;;;;;;;16.70;9.77;;;;;;;26.23;100.00;101217.84;4845339;29;20033;-76
2021/06/24 04:36:26;;;;;;;16.33;8.73;;;;;;;26.21;100.00;101214.44;4846176;29;20053;-76
2021/06/24 04:39:12;;;;;;;11.32;8.60;;;;;;;26.26;100.00;101207.75;4848390;29;20041;-77
2021/06/24 04:41:58;;;;;;;20.75;9.85;;;;;;;26.05;100.00;101208.47;4847167;29;20082;-75
2021/06/24 04:44:44;;;;;;;18.20;9.48;;;;;;;26.30;100.00;101208.38;4846649;29;20029;-75
2021/06/24 04:47:30;;;;;;;18.40;9.43;;;;;;;26.66;100.00;101216.38;4846643;29;20048;-75
2021/06/24 04:50:16;;;;;;;15.55;9.45;;;;;;;26.57;100.00;101209.81;4845988;29;20051;-75
2021/06/24 04:53:02;;;;;;;13.73;9.27;;;;;;;26.38;100.00;101222.09;4846615;29;20049;-76
2021/06/24 04:55:48;;;;;;;14.23;9.43;;;;;;;26.89;100.00;101204.72;4846693;29;20030;-75
2021/06/24 04:58:35;;;;;;;16.83;9.15;;;;;;;26.28;100.00;101204.94;4847132;29;20026;-75
2021/06/24 05:01:20;;;;;;;13.48;9.13;;;;;;;26.51;100.00;101210.28;4834036;29;20033;-77
2021/06/24 05:04:06;;;;;;;20.10;8.95;;;;;;;26.47;100.00;101202.56;4845415;29;20038;-76
2021/06/24 05:06:53;;;;;;;22.10;10.57;;;;;;;26.83;100.00;101199.81;4847020;29;20106;-75
2021/06/24 05:09:40;;;;;;;18.00;9.60;;;;;;;27.20;100.00;101201.38;4833658;29;20470;-76
2021/06/24 05:12:26;;;;;;;15.07;9.00;;;;;;;26.70;100.00;101194.53;4846884;29;20053;-76
2021/06/24 05:15:13;;;;;;;13.82;8.00;;;;;;;27.23;100.00;101202.00;4846918;29;20045;-76
2021/06/24 05:17:58;;;;;;;14.95;7.50;;;;;;;27.16;100.00;101197.16;4846889;29;20106;-77
2021/06/24 05:20:46;;;;;;;17.23;8.90;;;;;;;27.50;100.00;101209.72;4845992;29;20425;-77
2021/06/24 05:23:32;;;;;;;13.45;8.15;;;;;;;27.65;100.00;101211.19;4846834;29;20094;-76
2021/06/24 05:26:17;;;;;;;15.10;7.85;;;;;;;27.97;100.00;101216.69;4847732;29;20314;-76
2021/06/24 05:29:03;;;;;;;11.75;6.82;;;;;;;27.58;100.00;101224.25;4845571;29;20125;-76
2021/06/24 05:31:49;;;;;;;11.73;6.80;;;;;;;27.93;100.00;101223.31;4846489;29;20034;-76
2021/06/24 05:34:35;;;;;;;14.88;6.10;;;;;;;28.26;100.00;101224.09;4831624;29;20550;-76
2021/06/24 05:37:21;;;;;;;11.05;6.60;;;;;;;28.10;100.00;101229.03;4846367;29;20061;-76
2021/06/24 05:40:07;;;;;;;13.95;6.53;;;;;;;27.99;100.00;101228.19;4844927;29;20037;-76
2021/06/24 05:42:53;;;;;;;12.50;6.30;;;;;;;28.34;100.00;101228.84;4846730;29;20057;-76
2021/06/24 05:45:39;;;;;;;15.75;6.50;;;;;;;28.58;100.00;101235.78;4844706;29;20390;-76
2021/06/24 05:48:25;;;;;;;13.27;6.65;;;;;;;28.52;100.00;101240.84;4845163;29;20413;-76
2021/06/24 05:51:12;;;;;;;13.68;7.28;;;;;;;28.53;100.00;101243.38;4846083;29;20348;-75
2021/06/24 05:53:57;;;;;;;10.85;6.80;;;;;;;29.02;100.00;101240.13;4845415;29;20084;-76
2021/06/24 05:56:43;;;;;;;14.10;6.22;;;;;;;28.25;100.00;101229.59;4833216;29;20137;-75
2021/06/24 05:59:29;;;;;;;11.52;6.10;;;;;;;28.87;100.00;101233.28;4845648;29;20049;-75
2021/06/24 06:02:15;;;;;;;12.50;7.03;;;;;;;28.68;100.00;101234.00;4845501;29;20034;-75
2021/06/24 06:05:01;;;;;;;11.38;6.45;;;;;;;29.04;100.00;101233.59;4832713;29;20065;-75
2021/06/24 06:07:46;;;;;;;9.57;6.65;;;;;;;28.67;100.00;101232.31;4844526;29;20034;-75
2021/06/24 06:10:34;;;;;;;14.13;6.60;;;;;;;29.21;100.00;101234.84;4845565;29;20034;-75
2021/06/24 06:13:20;;;;;;;12.15;6.40;;;;;;;29.13;100.00;101230.09;4845542;29;20062;-75
2021/06/24 06:16:06;;;;;;;12.48;6.05;;;;;;;28.54;100.00;101228.94;4832772;29;20044;-75
2021/06/24 06:18:52;;;;;;;10.50;6.13;;;;;;;28.95;100.00;101228.97;4846353;29;20117;-75
2021/06/24 06:21:38;;;;;;;14.20;6.03;;;;;;;29.44;100.00;101239.97;4845385;29;20080;-76
2021/06/24 06:24:24;;;;;;;11.30;6.38;;;;;;;29.71;100.00;101242.09;4844780;29;20037;-76
2021/06/24 06:27:10;;;;;;;10.27;6.07;;;;;;;29.87;100.00;101234.34;4847471;29;20034;-76
2021/06/24 06:29:56;;;;;;;10.60;6.03;;;;;;;29.62;100.00;101235.66;4845326;29;20037;-75
2021/06/24 06:32:41;;;;;;;8.98;5.53;;;;;;;29.30;100.00;101232.22;4846571;29;20109;-75
2021/06/24 06:35:28;;;;;;;12.50;5.78;;;;;;;29.20;100.00;101239.38;4845754;29;20443;-76
2021/06/24 06:38:14;;;;;;;10.63;5.78;;;;;;;29.65;100.00;101240.78;4844818;29;20033;-76
2021/06/24 06:41:00;;;;;;;13.63;5.43;;;;;;;29.87;100.00;101245.16;4843649;29;20033;-76
2021/06/24 06:43:46;;;;;;;11.75;5.95;;;;;;;30.18;100.00;101238.72;4845033;29;20030;-75
2021/06/24 06:46:31;;;;;;;9.25;5.72;;;;;;;30.30;100.00;101226.81;4845360;29;20029;-75
2021/06/24 06:49:17;;;;;;;10.38;5.32;;;;;;;30.29;100.00;101236.75;4845063;29;20072;-75
2021/06/24 06:52:03;;;;;;;13.57;6.28;;;;;;;30.39;100.00;101247.59;4845430;29;20038;-75
2021/06/24 06:54:50;;;;;;;10.88;5.57;;;;;;;30.18;100.00;101250.38;4832630;29;20206;-75
2021/06/24 06:57:36;;;;;;;11.82;5.88;;;;;;;30.08;100.00;101244.09;4845241;29;20044;-76
2021/06/24 07:00:26;;;;;;;10.00;5.53;;;;;;;30.22;100.00;101250.97;4845390;29;20038;-76
2021/06/24 07:03:14;;;;;;;15.55;6.35;;;;;;;30.26;100.00;101247.00;4844187;29;20133;-76
2021/06/24 07:06:00;;;;;;;12.85;5.80;;;;;;;30.76;100.00;101248.63;4843965;29;20090;-76
2021/06/24 07:08:45;;;;;;;11.40;5.63;;;;;;;30.74;100.00;101243.34;4844948;29;20053;-75
2021/06/24 07:11:34;;;;;;;11.55;5.72;;;;;;;31.31;100.00;101247.88;4844057;29;20604;-75
2021/06/24 07:14:21;;;;;;;15.90;5.75;;;;;;;31.05;100.00;101255.75;4845132;29;20030;-75
2021/06/24 07:17:07;;;;;;;11.48;5.60;;;;;;;30.66;100.00;101256.72;4843850;29;20053;-75
2021/06/24 07:19:52;;;;;;;11.73;5.47;;;;;;;31.35;100.00;101252.84;4843303;29;20121;-76
2021/06/24 07:22:38;;;;;;;10.77;6.00;;;;;;;31.20;100.00;101254.28;4832150;29;20026;-76
2021/06/24 07:25:24;;;;;;;12.35;5.70;;;;;;;31.38;100.00;101252.56;4843830;29;20053;-76
2021/06/24 07:28:10;;;;;;;9.85;5.43;;;;;;;31.54;100.00;101249.22;4846007;29;20041;-76
2021/06/24 07:30:56;;;;;;;9.07;5.22;;;;;;;32.07;100.00;101252.16;4846005;29;20090;-76
2021/06/24 07:33:42;;;;;;;14.73;5.55;;;;;;;31.95;100.00;101254.22;4845098;29;20114;-75
2021/06/24 07:36:28;;;;;;;8.50;5.68;;;;;;;32.50;100.00;101255.06;4844428;29;20026;-75
2021/06/24 07:39:14;;;;;;;18.88;6.03;;;;;;;31.54;100.00;101254.63;4844449;29;20380;-75
2021/06/24 07:42:00;;;;;;;17.00;5.50;;;;;;;32.60;100.00;101261.25;4842828;29;20034;-75
2021/06/24 07:44:56;;;;;;;10.68;5.60;;;;;;;32.77;100.00;101254.97;4845422;29;20129;-76
2021/06/24 07:47:43;;;;;;;9.18;5.60;;;;;;;32.98;100.00;101244.69;4831113;29;20522;-76
2021/06/24 07:50:29;;;;;;;9.57;5.32;;;;;;;32.63;100.00;101242.81;4845311;29;20040;-75
2021/06/24 07:53:18;;;;;;;12.82;6.47;;;;;;;32.55;100.00;101228.31;4843292;29;20046;-77
2021/06/24 07:56:07;;;;;;;8.63;5.40;;;;;;;32.49;100.00;101221.63;4845327;29;20044;-77
2021/06/24 07:58:53;;;;;;;12.90;5.47;;;;;;;33.21;100.00;101226.84;4843317;29;20037;-75
2021/06/24 08:01:39;;;;;;;16.30;5.85;;;;;;;33.27;100.00;101231.66;4845091;29;20034;-76
2021/06/24 08:04:25;;;;;;;13.32;6.32;;;;;;;32.90;100.00;101229.16;4845645;29;20182;-75
2021/06/24 08:07:11;;;;;;;9.35;5.55;;;;;;;33.38;100.00;101232.25;4847274;29;20344;-76
2021/06/24 08:10:02;;;;;;;10.27;5.07;;;;;;;33.35;100.00;101231.75;4847110;29;20114;-76
2021/06/24 08:12:48;;;;;;;12.43;5.40;;;;;;;33.34;100.00;101228.16;4847439;29;20034;-76
2021/06/24 08:15:34;;;;;;;12.40;5.97;;;;;;;33.39;100.00;101227.69;4846782;29;20026;-76
2021/06/24 08:18:20;;;;;;;12.52;5.88;;;;;;;33.60;100.00;101237.16;4844950;29;20038;-76
2021/06/24 08:21:06;;;;;;;12.55;5.97;;;;;;;33.37;100.00;101230.56;4847393;29;20105;-76
2021/06/24 08:23:52;;;;;;;12.07;5.45;;;;;;;32.84;100.00;101224.38;4845913;29;20026;-76
2021/06/24 08:26:38;;;;;;;10.90;5.70;;;;;;;32.96;100.00;101230.41;4834655;29;20435;-76
2021/06/24 08:29:23;;;;;;;12.07;5.43;;;;;;;34.02;100.00;101229.88;4846463;29;20029;-76
2021/06/24 08:32:09;;;;;;;12.50;5.95;;;;;;;33.90;100.00;101231.19;4847382;29;20029;-75
2021/06/24 08:34:55;;;;;;;13.38;6.55;;;;;;;33.81;100.00;101228.56;4847457;29;20034;-76
2021/06/24 08:37:41;;;;;;;12.07;5.88;;;;;;;33.61;100.00;101227.13;4847251;29;20364;-76
2021/06/24 08:41:17;;;;;;;12.48;5.95;;;;;;;33.36;100.00;101217.13;4846096;29;20038;-76
2021/06/24 08:44:06;;;;;;;10.43;5.38;;;;;;;33.50;100.00;101221.94;4845653;29;20467;-76
2021/06/24 08:46:56;;;;;;;17.55;5.90;;;;;;;33.41;100.00;101215.63;4846239;29;20044;-78
2021/06/24 08:49:43;;;;;;;15.60;6.30;;;;;;;33.13;100.00;101211.34;4845261;29;20345;-76
2021/06/24 08:52:28;;;;;;;17.38;6.00;;;;;;;33.31;100.00;101214.84;4845561;29;20058;-77
2021/06/24 08:55:16;;;;;;;17.38;6.30;;;;;;;33.17;100.00;101217.31;4846665;29;20026;-76
2021/06/24 08:58:02;;;;;;;20.52;6.72;;;;;;;33.18;100.00;101213.59;4846571;29;20409;-76
2021/06/24 09:00:48;;;;;;;18.50;6.30;;;;;;;33.22;100.00;101220.41;4845798;29;20030;-76
2021/06/24 09:03:35;;;;;;;14.57;6.30;;;;;;;33.05;100.00;101216.72;4846843;29;20030;-76
2021/06/24 09:06:21;;;;;;;15.82;6.22;;;;;;;33.63;100.00;101225.09;4846098;29;20036;-77
2021/06/24 09:09:07;;;;;;;15.43;6.57;;;;;;;33.86;100.00;101228.97;4847600;29;20094;-76
2021/06/24 09:12:06;;;;;;;14.82;5.95;;;;;;;33.75;100.00;101223.81;4846701;29;20075;-75
2021/06/24 09:14:59;;;;;;;21.00;7.35;;;;;;;33.72;100.00;101221.41;4847657;29;20150;-77
2021/06/24 09:17:46;;;;;;;16.27;6.47;;;;;;;33.75;100.00;101212.94;4833640;29;20460;-76
2021/06/24 09:20:34;;;;;;;19.77;6.43;;;;;;;33.66;100.00;101208.44;4845994;29;20029;-77
2021/06/24 09:23:24;;;;;;;17.23;6.50;;;;;;;34.10;100.00;101210.88;4845356;29;20413;-76
2021/06/24 09:26:15;;;;;;;16.60;6.60;;;;;;;33.34;100.00;101203.69;4846332;29;20030;-76
2021/06/24 09:29:01;;;;;;;15.65;6.30;;;;;;;33.55;100.00;101206.03;4844565;29;20049;-75
2021/06/24 09:31:54;;;;;;;16.80;6.20;;;;;;;34.17;100.00;101208.34;4846332;29;20129;-75
2021/06/24 09:34:52;;;;;;;20.10;7.10;;;;;;;34.61;100.00;101209.78;4846153;29;20038;-75
2021/06/24 09:38:00;;;;;;;15.68;6.60;;;;;;;34.33;100.00;101202.97;4844756;29;20030;-76
2021/06/24 09:40:54;;;;;;;19.40;6.57;;;;;;;34.09;100.00;101205.59;4845222;29;20041;-75
2021/06/24 09:43:42;;;;;;;19.80;6.95;;;;;;;34.13;100.00;101201.53;4846574;29;20033;-75
2021/06/24 09:46:30;;;;;;;14.27;6.60;;;;;;;33.68;100.00;101196.41;4845280;29;20448;-75
2021/06/24 09:49:33;;;;;;;22.27;7.32;;;;;;;34.46;100.00;101187.84;4844292;29;20051;-75
2021/06/24 09:52:19;;;;;;;15.40;7.28;;;;;;;34.33;100.00;101203.81;4845978;29;20117;-75
2021/06/24 09:55:14;;;;;;;12.35;6.63;;;;;;;34.71;100.00;101196.84;4845589;29;20054;-76
2021/06/24 09:58:16;;;;;;;14.52;7.00;;;;;;;34.97;100.00;101205.75;4846632;29;20026;-76
2021/06/24 10:01:02;;;;;;;16.75;7.47;;;;;;;35.09;100.00;101201.63;4847063;29;20033;-76
2021/06/24 10:03:48;;;;;;;13.65;6.43;;;;;;;34.24;100.00;101204.75;4845122;29;20045;-76
2021/06/24 10:06:34;;;;;;;13.05;6.90;;;;;;;34.68;100.00;101198.03;4847217;29;20120;-76
2021/06/24 10:09:22;;;;;;;19.27;7.68;;;;;;;34.88;100.00;101195.88;4847127;29;20034;-76
2021/06/24 10:12:11;;;;;;;19.35;7.22;;;;;;;34.31;100.00;101194.13;4848179;29;20049;-76
2021/06/24 10:14:57;;;;;;;18.58;7.32;;;;;;;33.47;100.00;101182.38;4848662;29;20036;-75
2021/06/24 10:17:43;;;;;;;16.67;6.97;;;;;;;34.25;100.00;101181.13;4845935;29;20376;-76
2021/06/24 10:20:32;;;;;;;28.58;8.05;;;;;;;33.99;100.00;101183.13;4846133;29;20030;-76
2021/06/24 10:23:21;;;;;;;19.40;7.40;;;;;;;34.60;100.00;101178.97;4845204;29;20041;-76
2021/06/24 10:26:09;;;;;;;19.45;7.82;;;;;;;34.08;100.00;101182.13;4848688;29;20075;-77
2021/06/24 10:29:15;;;;;;;14.02;7.15;;;;;;;34.24;100.00;101174.84;4847580;29;20026;-77
2021/06/24 10:32:02;;;;;;;14.93;7.43;;;;;;;34.35;100.00;101171.00;4848697;29;20066;-77
2021/06/24 10:34:49;;;;;;;20.38;7.97;;;;;;;34.65;100.00;101175.78;4849701;29;20034;-77
2021/06/24 10:37:35;;;;;;;15.00;6.60;;;;;;;34.61;100.00;101174.41;4847507;29;20034;-77
2021/06/24 10:40:33;;;;;;;11.55;6.38;;;;;;;34.67;100.00;101180.00;4847698;29;20044;-78
2021/06/24 10:43:18;;;;;;;14.07;6.82;;;;;;;34.80;100.00;101185.00;4845299;29;20037;-78
2021/06/24 10:46:13;;;;;;;19.48;7.53;;;;;;;34.89;100.00;101178.50;4846418;29;20033;-78
2021/06/24 10:49:23;;;;;;;14.82;6.07;;;;;;;34.88;97.06;101176.81;4846073;29;20038;-76
2021/06/24 10:52:26;;;;;;;17.02;7.05;;;;;;;34.75;100.00;101171.84;4847499;29;20034;-78
2021/06/24 10:55:40;;;;;;;17.42;6.90;;;;;;;35.15;100.00;101174.56;4844364;29;20152;-77
2021/06/24 10:58:28;;;;;;;21.73;7.53;;;;;;;34.94;100.00;101178.84;4842927;29;20052;-76
2021/06/24 11:01:14;;;;;;;15.13;7.00;;;;;;;35.30;100.00;101174.72;4844263;29;20053;-77
2021/06/24 11:04:00;;;;;;;18.92;6.95;;;;;;;34.99;100.00;101169.13;4845186;29;20522;-77
2021/06/24 11:06:51;;;;;;;18.75;6.72;;;;;;;35.03;100.00;101170.50;4842919;29;20034;-77
2021/06/24 11:09:37;;;;;;;20.80;8.00;;;;;;;35.24;100.00;101168.03;4845152;29;20042;-77
2021/06/24 11:12:52;;;;;;;18.25;7.35;;;;;;;34.70;100.00;101167.94;4844403;29;20026;-76
2021/06/24 11:15:53;;;;;;;14.13;7.35;;;;;;;35.54;100.00;101171.91;4843363;29;20094;-78
2021/06/24 11:18:44;;;;;;;19.70;7.65;;;;;;;35.36;100.00;101165.84;4845179;29;20026;-78
2021/06/24 11:21:30;;;;;;;15.88;7.32;;;;;;;35.27;100.00;101160.56;4844769;29;20098;-78
2021/06/24 11:24:19;;;;;;;19.58;7.50;;;;;;;35.38;100.00;101161.06;4843107;29;20129;-77
2021/06/24 11:27:20;;;;;;;13.35;6.82;;;;;;;35.68;100.00;101173.03;4845294;29;20387;-77
2021/06/24 11:30:06;;;;;;;16.85;7.03;;;;;;;35.12;99.88;101161.25;4844292;29;20483;-76
2021/06/24 11:32:53;;;;;;;13.68;7.00;;;;;;;36.05;97.38;101157.72;4844168;29;20045;-77
2021/06/24 11:35:59;;;;;;;16.98;7.88;;;;;;;35.86;100.00;101158.16;4843203;29;20030;-78
2021/06/24 11:38:50;;;;;;;20.15;6.55;;;;;;;35.50;100.00;101167.84;4848127;29;20514;-77
2021/06/24 11:41:36;;;;;;;22.98;7.15;;;;;;;35.90;100.00;101159.50;4846432;29;20137;-77
2021/06/24 11:44:24;;;;;;;15.07;7.10;;;;;;;36.04;99.35;101150.53;4846691;29;20050;-77
2021/06/24 11:47:32;;;;;;;14.32;6.90;;;;;;;35.94;96.32;101152.66;4845917;29;20025;-77
2021/06/24 12:03:07;;;;;;;20.98;7.75;;;;;;;35.72;100.00;101142.53;4846746;29;20097;-77
2021/06/24 12:05:54;;;;;;;18.98;7.30;;;;;;;35.47;100.00;101146.38;4846428;29;20025;-77
2021/06/24 12:08:40;;;;;;;16.77;7.20;;;;;;;35.91;100.00;101136.63;4847966;29;20040;-77
2021/06/24 12:11:35;;;;;;;18.55;6.85;;;;;;;36.25;98.66;101131.69;4847545;29;20345;-77
2021/06/24 12:14:27;;;;;;;18.45;7.45;;;;;;;36.05;99.12;101133.16;4846108;29;20048;-77
2021/06/24 12:17:26;;;;;;;14.35;7.30;;;;;;;36.26;100.00;101136.09;4846132;29;20034;-77
2021/06/24 12:20:22;;;;;;;20.05;7.90;;;;;;;36.19;100.00;101132.34;4847333;29;20038;-77
2021/06/24 12:23:14;;;;;;;20.20;7.45;;;;;;;35.31;100.00;101131.97;4847239;29;20114;-77
2021/06/24 12:26:00;;;;;;;18.38;7.55;;;;;;;36.14;100.00;101132.06;4846097;29;20029;-77
2021/06/24 12:28:46;;;;;;;14.68;6.97;;;;;;;36.41;96.89;101131.56;4846739;29;20155;-77
2021/06/24 12:31:34;;;;;;;15.88;7.28;;;;;;;36.53;97.20;101130.09;4848305;29;20057;-77
2021/06/24 12:34:21;;;;;;;20.48;7.65;;;;;;;36.47;98.22;101132.69;4846758;29;20038;-76
2021/06/24 12:37:07;;;;;;;13.57;6.93;;;;;;;36.96;96.66;101140.25;4846102;29;20034;-78
2021/06/24 12:39:53;;;;;;;15.70;7.05;;;;;;;36.39;98.25;101130.03;4847108;29;20132;-78
2021/06/24 12:42:45;;;;;;;19.90;7.03;;;;;;;36.42;99.55;101137.84;4832612;29;20034;-77
2021/06/24 12:45:35;;;;;;;15.45;6.93;;;;;;;37.14;95.60;101134.47;4846327;29;20030;-77
2021/06/24 12:48:43;;;;;;;13.57;7.47;;;;;;;37.00;96.03;101133.38;4846155;29;20348;-78
2021/06/24 12:51:29;;;;;;;14.75;7.13;;;;;;;36.98;97.48;101134.63;4846072;29;20034;-78
2021/06/24 12:54:17;;;;;;;17.35;7.10;;;;;;;36.78;99.43;101123.38;4844581;29;20077;-78
2021/06/24 12:57:06;;;;;;;18.77;8.23;;;;;;;36.47;100.00;101125.34;4846705;29;20432;-76